sensor_id;sensor_type;location;lat;lon;timestamp;P1;durP1;ratioP1;P2;durP2;ratioP2
76094;SDS011;64821;13.710;100.604;2023-05-07T00:00:41;20.57;;;14.67;;
76094;SDS011;64821;13.710;100.604;2023-05-07T00:01:45;20.00;;;14.50;;
76094;SDS011;64821;13.710;100.604;2023-05-07T00:02:49;18.40;;;13.43;;
76094;SDS011;64821;13.710;100.604;2023-05-07T00:03:53;18.52;;;13.73;;
76094;SDS011;64821;13.710;100.604;2023-05-07T00:04:57;18.05;;;13.43;;
76094;SDS011;64821;13.710;100.604;2023-05-07T00:06:01;19.43;;;13.90;;
76094;SDS011;64821;13.710;100.604;2023-05-07T00:07:05;19.13;;;13.88;;
76094;SDS011;64821;13.710;100.604;2023-05-07T00:08:08;19.65;;;13.98;;
76094;SDS011;64821;13.710;100.604;2023-05-07T00:09:13;18.02;;;13.82;;
76094;SDS011;64821;13.710;100.604;2023-05-07T00:10:16;18.08;;;13.98;;
76094;SDS011;64821;13.710;100.604;2023-05-07T00:11:22;18.43;;;13.90;;
76094;SDS011;64821;13.710;100.604;2023-05-07T00:12:26;17.00;;;13.50;;
76094;SDS011;64821;13.710;100.604;2023-05-07T00:13:30;17.77;;;13.80;;
76094;SDS011;64821;13.710;100.604;2023-05-07T00:14:33;17.52;;;13.75;;
76094;SDS011;64821;13.710;100.604;2023-05-07T00:15:37;17.17;;;13.18;;
76094;SDS011;64821;13.710;100.604;2023-05-07T00:16:41;20.47;;;13.67;;
76094;SDS011;64821;13.710;100.604;2023-05-07T00:17:45;17.92;;;13.32;;
76094;SDS011;64821;13.710;100.604;2023-05-07T00:18:48;19.52;;;14.40;;
76094;SDS011;64821;13.710;100.604;2023-05-07T00:19:52;19.70;;;13.73;;
76094;SDS011;64821;13.710;100.604;2023-05-07T00:20:56;17.95;;;13.82;;
76094;SDS011;64821;13.710;100.604;2023-05-07T00:22:00;19.77;;;14.20;;
76094;SDS011;64821;13.710;100.604;2023-05-07T00:23:03;20.08;;;14.32;;
76094;SDS011;64821;13.710;100.604;2023-05-07T00:24:07;18.92;;;13.60;;
76094;SDS011;64821;13.710;100.604;2023-05-07T00:25:11;19.65;;;14.32;;
76094;SDS011;64821;13.710;100.604;2023-05-07T00:26:15;20.70;;;14.10;;
76094;SDS011;64821;13.710;100.604;2023-05-07T00:27:21;19.27;;;13.73;;
76094;SDS011;64821;13.710;100.604;2023-05-07T00:28:24;17.60;;;13.73;;
76094;SDS011;64821;13.710;100.604;2023-05-07T00:29:28;20.05;;;14.55;;
76094;SDS011;64821;13.710;100.604;2023-05-07T00:30:34;17.73;;;13.82;;
76094;SDS011;64821;13.710;100.604;2023-05-07T00:31:38;18.35;;;13.60;;
76094;SDS011;64821;13.710;100.604;2023-05-07T00:32:47;18.73;;;13.80;;
76094;SDS011;64821;13.710;100.604;2023-05-07T00:33:52;18.05;;;13.75;;
76094;SDS011;64821;13.710;100.604;2023-05-07T00:34:56;18.50;;;13.43;;
76094;SDS011;64821;13.710;100.604;2023-05-07T00:36:00;17.98;;;13.85;;
76094;SDS011;64821;13.710;100.604;2023-05-07T00:37:03;19.92;;;14.20;;
76094;SDS011;64821;13.710;100.604;2023-05-07T00:38:07;18.10;;;13.70;;
76094;SDS011;64821;13.710;100.604;2023-05-07T00:39:11;19.35;;;14.25;;
76094;SDS011;64821;13.710;100.604;2023-05-07T00:40:15;18.13;;;13.50;;
76094;SDS011;64821;13.710;100.604;2023-05-07T00:41:18;19.33;;;14.10;;
76094;SDS011;64821;13.710;100.604;2023-05-07T00:42:24;18.75;;;13.98;;
76094;SDS011;64821;13.710;100.604;2023-05-07T00:43:27;17.53;;;13.70;;
76094;SDS011;64821;13.710;100.604;2023-05-07T00:44:31;18.13;;;14.10;;
76094;SDS011;64821;13.710;100.604;2023-05-07T00:45:35;17.80;;;13.80;;
76094;SDS011;64821;13.710;100.604;2023-05-07T00:46:39;20.63;;;14.80;;
76094;SDS011;64821;13.710;100.604;2023-05-07T00:47:42;18.98;;;13.90;;
76094;SDS011;64821;13.710;100.604;2023-05-07T00:48:47;20.63;;;14.13;;
76094;SDS011;64821;13.710;100.604;2023-05-07T00:49:52;19.10;;;14.18;;
76094;SDS011;64821;13.710;100.604;2023-05-07T00:50:56;18.90;;;14.15;;
76094;SDS011;64821;13.710;100.604;2023-05-07T00:52:00;17.85;;;13.93;;
76094;SDS011;64821;13.710;100.604;2023-05-07T00:53:04;18.45;;;14.27;;
76094;SDS011;64821;13.710;100.604;2023-05-07T00:54:09;22.00;;;14.73;;
76094;SDS011;64821;13.710;100.604;2023-05-07T00:55:13;20.40;;;14.02;;
76094;SDS011;64821;13.710;100.604;2023-05-07T00:56:17;18.38;;;14.45;;
76094;SDS011;64821;13.710;100.604;2023-05-07T00:57:21;21.35;;;14.60;;
76094;SDS011;64821;13.710;100.604;2023-05-07T00:58:28;20.20;;;14.38;;
76094;SDS011;64821;13.710;100.604;2023-05-07T00:59:32;21.03;;;14.77;;
76094;SDS011;64821;13.710;100.604;2023-05-07T01:00:36;19.50;;;14.40;;
76094;SDS011;64821;13.710;100.604;2023-05-07T01:01:40;20.70;;;14.68;;
76094;SDS011;64821;13.710;100.604;2023-05-07T01:02:43;19.38;;;14.25;;
76094;SDS011;64821;13.710;100.604;2023-05-07T01:03:48;17.15;;;13.68;;
76094;SDS011;64821;13.710;100.604;2023-05-07T01:04:52;19.47;;;14.53;;
76094;SDS011;64821;13.710;100.604;2023-05-07T01:05:56;18.73;;;14.10;;
76094;SDS011;64821;13.710;100.604;2023-05-07T01:07:02;20.08;;;14.77;;
76094;SDS011;64821;13.710;100.604;2023-05-07T01:08:07;20.63;;;14.70;;
76094;SDS011;64821;13.710;100.604;2023-05-07T01:09:12;20.48;;;14.63;;
76094;SDS011;64821;13.710;100.604;2023-05-07T01:10:16;21.37;;;15.00;;
76094;SDS011;64821;13.710;100.604;2023-05-07T01:11:20;20.75;;;14.25;;
76094;SDS011;64821;13.710;100.604;2023-05-07T01:12:24;19.55;;;14.52;;
76094;SDS011;64821;13.710;100.604;2023-05-07T01:13:31;21.55;;;14.20;;
76094;SDS011;64821;13.710;100.604;2023-05-07T01:14:35;18.73;;;14.57;;
76094;SDS011;64821;13.710;100.604;2023-05-07T01:15:39;17.63;;;13.67;;
76094;SDS011;64821;13.710;100.604;2023-05-07T01:16:43;20.35;;;14.27;;
76094;SDS011;64821;13.710;100.604;2023-05-07T01:17:47;21.17;;;14.35;;
76094;SDS011;64821;13.710;100.604;2023-05-07T01:18:51;20.85;;;15.00;;
76094;SDS011;64821;13.710;100.604;2023-05-07T01:19:58;18.80;;;14.50;;
76094;SDS011;64821;13.710;100.604;2023-05-07T01:21:01;17.30;;;13.30;;
76094;SDS011;64821;13.710;100.604;2023-05-07T01:22:08;20.70;;;15.45;;
76094;SDS011;64821;13.710;100.604;2023-05-07T01:23:15;18.25;;;14.50;;
76094;SDS011;64821;13.710;100.604;2023-05-07T01:24:20;20.10;;;15.05;;
76094;SDS011;64821;13.710;100.604;2023-05-07T01:25:24;18.05;;;14.13;;
76094;SDS011;64821;13.710;100.604;2023-05-07T01:26:28;22.53;;;15.33;;
76094;SDS011;64821;13.710;100.604;2023-05-07T01:27:32;19.02;;;14.60;;
76094;SDS011;64821;13.710;100.604;2023-05-07T01:28:36;20.83;;;15.35;;
76094;SDS011;64821;13.710;100.604;2023-05-07T01:29:39;17.42;;;13.82;;
76094;SDS011;64821;13.710;100.604;2023-05-07T01:30:44;19.70;;;14.15;;
76094;SDS011;64821;13.710;100.604;2023-05-07T01:31:49;20.33;;;14.33;;
76094;SDS011;64821;13.710;100.604;2023-05-07T01:32:57;18.08;;;13.70;;
76094;SDS011;64821;13.710;100.604;2023-05-07T01:34:04;19.95;;;14.13;;
76094;SDS011;64821;13.710;100.604;2023-05-07T01:35:12;19.30;;;14.88;;
76094;SDS011;64821;13.710;100.604;2023-05-07T01:36:21;20.27;;;14.30;;
76094;SDS011;64821;13.710;100.604;2023-05-07T01:37:26;20.70;;;14.20;;
76094;SDS011;64821;13.710;100.604;2023-05-07T01:38:32;20.20;;;14.32;;
76094;SDS011;64821;13.710;100.604;2023-05-07T01:39:37;19.80;;;14.35;;
76094;SDS011;64821;13.710;100.604;2023-05-07T01:40:42;21.02;;;15.35;;
76094;SDS011;64821;13.710;100.604;2023-05-07T01:41:46;20.27;;;14.52;;
76094;SDS011;64821;13.710;100.604;2023-05-07T01:42:50;19.37;;;14.40;;
76094;SDS011;64821;13.710;100.604;2023-05-07T01:43:55;18.70;;;14.25;;
76094;SDS011;64821;13.710;100.604;2023-05-07T01:45:02;18.38;;;14.00;;
76094;SDS011;64821;13.710;100.604;2023-05-07T01:46:06;18.85;;;14.82;;
76094;SDS011;64821;13.710;100.604;2023-05-07T01:47:10;18.42;;;14.60;;
76094;SDS011;64821;13.710;100.604;2023-05-07T01:48:16;18.13;;;14.07;;
76094;SDS011;64821;13.710;100.604;2023-05-07T01:49:21;18.92;;;15.07;;
76094;SDS011;64821;13.710;100.604;2023-05-07T01:50:26;20.23;;;15.18;;
76094;SDS011;64821;13.710;100.604;2023-05-07T01:51:31;19.65;;;14.30;;
76094;SDS011;64821;13.710;100.604;2023-05-07T01:52:36;18.33;;;14.10;;
76094;SDS011;64821;13.710;100.604;2023-05-07T01:53:42;20.17;;;13.87;;
76094;SDS011;64821;13.710;100.604;2023-05-07T01:54:46;20.98;;;14.68;;
76094;SDS011;64821;13.710;100.604;2023-05-07T01:55:50;18.92;;;14.32;;
76094;SDS011;64821;13.710;100.604;2023-05-07T01:56:56;20.73;;;15.13;;
76094;SDS011;64821;13.710;100.604;2023-05-07T01:57:59;19.95;;;13.80;;
76094;SDS011;64821;13.710;100.604;2023-05-07T01:59:03;18.70;;;13.40;;
76094;SDS011;64821;13.710;100.604;2023-05-07T02:00:07;18.20;;;14.38;;
76094;SDS011;64821;13.710;100.604;2023-05-07T02:01:12;18.75;;;14.35;;
76094;SDS011;64821;13.710;100.604;2023-05-07T02:02:17;20.08;;;13.82;;
76094;SDS011;64821;13.710;100.604;2023-05-07T02:03:20;20.20;;;14.07;;
76094;SDS011;64821;13.710;100.604;2023-05-07T02:04:25;19.70;;;14.83;;
76094;SDS011;64821;13.710;100.604;2023-05-07T02:05:28;20.33;;;14.82;;
76094;SDS011;64821;13.710;100.604;2023-05-07T02:06:32;20.42;;;14.93;;
76094;SDS011;64821;13.710;100.604;2023-05-07T02:07:36;20.40;;;14.98;;
76094;SDS011;64821;13.710;100.604;2023-05-07T02:08:39;22.13;;;13.75;;
76094;SDS011;64821;13.710;100.604;2023-05-07T02:09:45;18.93;;;13.77;;
76094;SDS011;64821;13.710;100.604;2023-05-07T02:10:49;18.88;;;14.40;;
76094;SDS011;64821;13.710;100.604;2023-05-07T02:11:58;20.08;;;14.80;;
76094;SDS011;64821;13.710;100.604;2023-05-07T02:13:01;18.02;;;14.30;;
76094;SDS011;64821;13.710;100.604;2023-05-07T02:14:11;19.52;;;13.93;;
76094;SDS011;64821;13.710;100.604;2023-05-07T02:15:28;18.97;;;13.90;;
76094;SDS011;64821;13.710;100.604;2023-05-07T02:16:33;18.48;;;13.80;;
76094;SDS011;64821;13.710;100.604;2023-05-07T02:17:57;18.50;;;13.60;;
76094;SDS011;64821;13.710;100.604;2023-05-07T02:19:23;18.58;;;13.52;;
76094;SDS011;64821;13.710;100.604;2023-05-07T02:20:31;19.02;;;14.48;;
76094;SDS011;64821;13.710;100.604;2023-05-07T02:21:38;19.03;;;13.93;;
76094;SDS011;64821;13.710;100.604;2023-05-07T02:22:44;18.70;;;13.60;;
76094;SDS011;64821;13.710;100.604;2023-05-07T02:23:58;17.35;;;12.27;;
76094;SDS011;64821;13.710;100.604;2023-05-07T02:25:02;17.00;;;12.70;;
76094;SDS011;64821;13.710;100.604;2023-05-07T02:26:06;18.30;;;13.73;;
76094;SDS011;64821;13.710;100.604;2023-05-07T02:27:09;19.73;;;13.17;;
76094;SDS011;64821;13.710;100.604;2023-05-07T02:28:13;17.05;;;12.65;;
76094;SDS011;64821;13.710;100.604;2023-05-07T02:29:17;18.52;;;13.18;;
76094;SDS011;64821;13.710;100.604;2023-05-07T02:30:20;18.35;;;13.23;;
76094;SDS011;64821;13.710;100.604;2023-05-07T02:31:24;17.55;;;12.63;;
76094;SDS011;64821;13.710;100.604;2023-05-07T02:32:28;18.83;;;12.60;;
76094;SDS011;64821;13.710;100.604;2023-05-07T02:33:32;17.20;;;12.40;;
76094;SDS011;64821;13.710;100.604;2023-05-07T02:34:35;16.25;;;12.05;;
76094;SDS011;64821;13.710;100.604;2023-05-07T02:35:39;18.73;;;12.00;;
76094;SDS011;64821;13.710;100.604;2023-05-07T02:36:43;16.17;;;11.63;;
76094;SDS011;64821;13.710;100.604;2023-05-07T02:37:52;16.20;;;11.57;;
76094;SDS011;64821;13.710;100.604;2023-05-07T02:38:59;17.35;;;11.93;;
76094;SDS011;64821;13.710;100.604;2023-05-07T02:40:03;17.17;;;11.68;;
76094;SDS011;64821;13.710;100.604;2023-05-07T02:41:08;15.55;;;11.27;;
76094;SDS011;64821;13.710;100.604;2023-05-07T02:42:12;17.02;;;12.20;;
76094;SDS011;64821;13.710;100.604;2023-05-07T02:43:15;14.90;;;11.60;;
76094;SDS011;64821;13.710;100.604;2023-05-07T02:44:19;17.13;;;11.80;;
76094;SDS011;64821;13.710;100.604;2023-05-07T02:45:23;17.33;;;11.73;;
76094;SDS011;64821;13.710;100.604;2023-05-07T02:46:27;16.48;;;11.50;;
76094;SDS011;64821;13.710;100.604;2023-05-07T02:47:30;17.98;;;12.43;;
76094;SDS011;64821;13.710;100.604;2023-05-07T02:48:34;16.63;;;12.00;;
76094;SDS011;64821;13.710;100.604;2023-05-07T02:49:38;15.80;;;11.52;;
76094;SDS011;64821;13.710;100.604;2023-05-07T02:50:42;15.05;;;11.07;;
76094;SDS011;64821;13.710;100.604;2023-05-07T02:51:46;16.05;;;11.63;;
76094;SDS011;64821;13.710;100.604;2023-05-07T02:52:49;16.63;;;12.00;;
76094;SDS011;64821;13.710;100.604;2023-05-07T02:53:53;15.80;;;10.80;;
76094;SDS011;64821;13.710;100.604;2023-05-07T02:54:58;16.70;;;11.38;;
76094;SDS011;64821;13.710;100.604;2023-05-07T02:56:02;15.35;;;10.93;;
76094;SDS011;64821;13.710;100.604;2023-05-07T02:57:06;16.05;;;11.10;;
76094;SDS011;64821;13.710;100.604;2023-05-07T02:58:10;15.60;;;11.23;;
76094;SDS011;64821;13.710;100.604;2023-05-07T02:59:14;15.00;;;10.93;;
76094;SDS011;64821;13.710;100.604;2023-05-07T03:00:18;15.15;;;10.60;;
76094;SDS011;64821;13.710;100.604;2023-05-07T03:01:23;17.08;;;11.00;;
76094;SDS011;64821;13.710;100.604;2023-05-07T03:02:26;17.05;;;11.00;;
76094;SDS011;64821;13.710;100.604;2023-05-07T03:03:30;17.58;;;11.18;;
76094;SDS011;64821;13.710;100.604;2023-05-07T03:04:34;16.07;;;11.70;;
76094;SDS011;64821;13.710;100.604;2023-05-07T03:05:38;16.95;;;11.02;;
76094;SDS011;64821;13.710;100.604;2023-05-07T03:06:42;16.30;;;11.65;;
76094;SDS011;64821;13.710;100.604;2023-05-07T03:07:46;13.75;;;10.63;;
76094;SDS011;64821;13.710;100.604;2023-05-07T03:08:49;16.25;;;11.20;;
76094;SDS011;64821;13.710;100.604;2023-05-07T03:09:53;15.47;;;11.57;;
76094;SDS011;64821;13.710;100.604;2023-05-07T03:10:59;14.63;;;10.43;;
76094;SDS011;64821;13.710;100.604;2023-05-07T03:12:03;15.43;;;10.60;;
76094;SDS011;64821;13.710;100.604;2023-05-07T03:13:07;15.90;;;11.15;;
76094;SDS011;64821;13.710;100.604;2023-05-07T03:14:11;16.10;;;10.82;;
76094;SDS011;64821;13.710;100.604;2023-05-07T03:15:15;14.90;;;10.00;;
76094;SDS011;64821;13.710;100.604;2023-05-07T03:16:19;16.75;;;10.25;;
76094;SDS011;64821;13.710;100.604;2023-05-07T03:17:22;14.55;;;10.18;;
76094;SDS011;64821;13.710;100.604;2023-05-07T03:18:26;14.05;;;9.73;;
76094;SDS011;64821;13.710;100.604;2023-05-07T03:19:30;13.95;;;9.90;;
76094;SDS011;64821;13.710;100.604;2023-05-07T03:20:34;13.00;;;9.07;;
76094;SDS011;64821;13.710;100.604;2023-05-07T03:21:38;13.77;;;9.10;;
76094;SDS011;64821;13.710;100.604;2023-05-07T03:22:52;13.75;;;9.13;;
76094;SDS011;64821;13.710;100.604;2023-05-07T03:23:56;13.00;;;8.63;;
76094;SDS011;64821;13.710;100.604;2023-05-07T03:25:00;13.98;;;9.18;;
76094;SDS011;64821;13.710;100.604;2023-05-07T03:26:05;14.73;;;8.97;;
76094;SDS011;64821;13.710;100.604;2023-05-07T03:27:09;14.38;;;8.88;;
76094;SDS011;64821;13.710;100.604;2023-05-07T03:28:13;12.90;;;8.85;;
76094;SDS011;64821;13.710;100.604;2023-05-07T03:29:17;13.30;;;9.68;;
76094;SDS011;64821;13.710;100.604;2023-05-07T03:30:20;14.70;;;9.18;;
76094;SDS011;64821;13.710;100.604;2023-05-07T03:31:24;15.77;;;9.90;;
76094;SDS011;64821;13.710;100.604;2023-05-07T03:32:28;14.32;;;9.98;;
76094;SDS011;64821;13.710;100.604;2023-05-07T03:33:32;12.60;;;9.38;;
76094;SDS011;64821;13.710;100.604;2023-05-07T03:34:37;12.93;;;9.30;;
76094;SDS011;64821;13.710;100.604;2023-05-07T03:35:40;13.45;;;8.95;;
76094;SDS011;64821;13.710;100.604;2023-05-07T03:36:44;13.43;;;9.17;;
76094;SDS011;64821;13.710;100.604;2023-05-07T03:37:48;13.30;;;8.68;;
76094;SDS011;64821;13.710;100.604;2023-05-07T03:38:51;11.70;;;8.48;;
76094;SDS011;64821;13.710;100.604;2023-05-07T03:39:55;12.25;;;8.07;;
76094;SDS011;64821;13.710;100.604;2023-05-07T03:40:59;14.65;;;8.88;;
76094;SDS011;64821;13.710;100.604;2023-05-07T03:42:05;12.03;;;8.23;;
76094;SDS011;64821;13.710;100.604;2023-05-07T03:43:08;14.40;;;8.30;;
76094;SDS011;64821;13.710;100.604;2023-05-07T03:44:12;12.68;;;7.90;;
76094;SDS011;64821;13.710;100.604;2023-05-07T03:45:18;11.77;;;7.95;;
76094;SDS011;64821;13.710;100.604;2023-05-07T03:46:24;12.32;;;7.97;;
76094;SDS011;64821;13.710;100.604;2023-05-07T03:47:27;12.57;;;8.40;;
76094;SDS011;64821;13.710;100.604;2023-05-07T03:48:31;12.02;;;8.25;;
76094;SDS011;64821;13.710;100.604;2023-05-07T03:49:35;13.82;;;8.73;;
76094;SDS011;64821;13.710;100.604;2023-05-07T03:50:39;13.90;;;9.18;;
76094;SDS011;64821;13.710;100.604;2023-05-07T03:51:43;12.77;;;8.63;;
76094;SDS011;64821;13.710;100.604;2023-05-07T03:52:47;11.73;;;7.80;;
76094;SDS011;64821;13.710;100.604;2023-05-07T03:54:03;13.10;;;8.50;;
76094;SDS011;64821;13.710;100.604;2023-05-07T03:55:18;14.35;;;9.02;;
76094;SDS011;64821;13.710;100.604;2023-05-07T03:56:35;12.23;;;8.05;;
76094;SDS011;64821;13.710;100.604;2023-05-07T03:59:18;13.87;;;9.07;;
76094;SDS011;64821;13.710;100.604;2023-05-07T04:00:31;15.63;;;8.57;;
76094;SDS011;64821;13.710;100.604;2023-05-07T04:01:35;15.65;;;9.55;;
76094;SDS011;64821;13.710;100.604;2023-05-07T04:02:43;12.45;;;8.02;;
76094;SDS011;64821;13.710;100.604;2023-05-07T04:04:04;12.07;;;8.50;;
76094;SDS011;64821;13.710;100.604;2023-05-07T04:05:08;13.00;;;7.57;;
76094;SDS011;64821;13.710;100.604;2023-05-07T04:06:12;12.68;;;7.88;;
76094;SDS011;64821;13.710;100.604;2023-05-07T04:07:16;15.02;;;8.20;;
76094;SDS011;64821;13.710;100.604;2023-05-07T04:08:20;12.40;;;8.15;;
76094;SDS011;64821;13.710;100.604;2023-05-07T04:09:23;15.40;;;8.30;;
76094;SDS011;64821;13.710;100.604;2023-05-07T04:10:29;14.87;;;8.50;;
76094;SDS011;64821;13.710;100.604;2023-05-07T04:11:33;12.77;;;8.43;;
76094;SDS011;64821;13.710;100.604;2023-05-07T04:12:38;12.90;;;8.90;;
76094;SDS011;64821;13.710;100.604;2023-05-07T04:15:10;13.15;;;8.88;;
76094;SDS011;64821;13.710;100.604;2023-05-07T04:16:29;12.43;;;8.30;;
76094;SDS011;64821;13.710;100.604;2023-05-07T04:18:06;11.93;;;8.90;;
76094;SDS011;64821;13.710;100.604;2023-05-07T04:19:13;13.05;;;8.90;;
76094;SDS011;64821;13.710;100.604;2023-05-07T04:20:17;13.82;;;8.20;;
76094;SDS011;64821;13.710;100.604;2023-05-07T04:21:21;14.57;;;9.00;;
76094;SDS011;64821;13.710;100.604;2023-05-07T04:22:31;14.03;;;9.07;;
76094;SDS011;64821;13.710;100.604;2023-05-07T04:23:35;12.38;;;8.75;;
76094;SDS011;64821;13.710;100.604;2023-05-07T04:24:39;13.48;;;8.88;;
76094;SDS011;64821;13.710;100.604;2023-05-07T04:25:43;13.25;;;8.90;;
76094;SDS011;64821;13.710;100.604;2023-05-07T04:26:47;12.90;;;8.65;;
76094;SDS011;64821;13.710;100.604;2023-05-07T04:27:57;13.63;;;8.93;;
76094;SDS011;64821;13.710;100.604;2023-05-07T04:29:01;12.50;;;9.05;;
76094;SDS011;64821;13.710;100.604;2023-05-07T04:30:07;13.13;;;8.95;;
76094;SDS011;64821;13.710;100.604;2023-05-07T04:31:12;12.30;;;8.05;;
76094;SDS011;64821;13.710;100.604;2023-05-07T04:32:16;13.30;;;8.38;;
76094;SDS011;64821;13.710;100.604;2023-05-07T04:33:20;12.27;;;8.20;;
76094;SDS011;64821;13.710;100.604;2023-05-07T04:34:24;12.27;;;8.30;;
76094;SDS011;64821;13.710;100.604;2023-05-07T04:35:27;14.00;;;8.18;;
76094;SDS011;64821;13.710;100.604;2023-05-07T04:36:31;13.35;;;7.85;;
76094;SDS011;64821;13.710;100.604;2023-05-07T04:37:35;12.05;;;8.02;;
76094;SDS011;64821;13.710;100.604;2023-05-07T04:38:39;14.63;;;8.17;;
76094;SDS011;64821;13.710;100.604;2023-05-07T04:39:45;12.93;;;8.07;;
76094;SDS011;64821;13.710;100.604;2023-05-07T04:40:49;12.82;;;8.00;;
76094;SDS011;64821;13.710;100.604;2023-05-07T04:41:53;12.10;;;7.55;;
76094;SDS011;64821;13.710;100.604;2023-05-07T04:42:57;11.23;;;7.65;;
76094;SDS011;64821;13.710;100.604;2023-05-07T04:44:00;11.33;;;7.80;;
76094;SDS011;64821;13.710;100.604;2023-05-07T04:45:04;12.82;;;7.70;;
76094;SDS011;64821;13.710;100.604;2023-05-07T04:46:10;12.80;;;7.70;;
76094;SDS011;64821;13.710;100.604;2023-05-07T04:47:14;12.27;;;7.75;;
76094;SDS011;64821;13.710;100.604;2023-05-07T04:48:18;13.40;;;8.57;;
76094;SDS011;64821;13.710;100.604;2023-05-07T04:49:22;11.67;;;7.40;;
76094;SDS011;64821;13.710;100.604;2023-05-07T04:50:25;13.35;;;7.90;;
76094;SDS011;64821;13.710;100.604;2023-05-07T04:51:29;12.40;;;7.63;;
76094;SDS011;64821;13.710;100.604;2023-05-07T04:52:36;11.93;;;7.50;;
76094;SDS011;64821;13.710;100.604;2023-05-07T04:53:39;11.82;;;7.50;;
76094;SDS011;64821;13.710;100.604;2023-05-07T04:54:44;10.93;;;7.63;;
76094;SDS011;64821;13.710;100.604;2023-05-07T04:55:49;12.60;;;8.20;;
76094;SDS011;64821;13.710;100.604;2023-05-07T04:56:57;14.00;;;8.75;;
76094;SDS011;64821;13.710;100.604;2023-05-07T04:58:01;14.60;;;8.23;;
76094;SDS011;64821;13.710;100.604;2023-05-07T04:59:05;11.25;;;7.55;;
76094;SDS011;64821;13.710;100.604;2023-05-07T05:00:11;13.57;;;8.40;;
76094;SDS011;64821;13.710;100.604;2023-05-07T05:01:18;12.40;;;8.68;;
76094;SDS011;64821;13.710;100.604;2023-05-07T05:02:22;13.15;;;8.18;;
76094;SDS011;64821;13.710;100.604;2023-05-07T20:01:43;17.42;;;10.48;;
76094;SDS011;64821;13.710;100.604;2023-05-07T20:02:47;16.00;;;10.50;;
76094;SDS011;64821;13.710;100.604;2023-05-07T20:03:51;14.23;;;10.02;;
76094;SDS011;64821;13.710;100.604;2023-05-07T20:04:54;16.45;;;10.30;;
76094;SDS011;64821;13.710;100.604;2023-05-07T20:05:58;16.90;;;10.18;;
76094;SDS011;64821;13.710;100.604;2023-05-07T20:07:02;18.20;;;10.77;;
76094;SDS011;64821;13.710;100.604;2023-05-07T20:08:06;17.30;;;10.60;;
76094;SDS011;64821;13.710;100.604;2023-05-07T20:09:10;15.00;;;10.40;;
76094;SDS011;64821;13.710;100.604;2023-05-07T20:10:17;15.50;;;10.57;;
76094;SDS011;64821;13.710;100.604;2023-05-07T20:11:20;17.35;;;10.45;;
76094;SDS011;64821;13.710;100.604;2023-05-07T20:12:24;18.80;;;10.35;;
76094;SDS011;64821;13.710;100.604;2023-05-07T20:13:28;16.63;;;10.50;;
76094;SDS011;64821;13.710;100.604;2023-05-07T20:14:32;17.92;;;10.65;;
76094;SDS011;64821;13.710;100.604;2023-05-07T20:15:36;15.70;;;10.25;;
76094;SDS011;64821;13.710;100.604;2023-05-07T20:16:40;17.92;;;11.20;;
76094;SDS011;64821;13.710;100.604;2023-05-07T20:17:45;18.48;;;9.95;;
76094;SDS011;64821;13.710;100.604;2023-05-07T20:18:50;15.57;;;10.13;;
76094;SDS011;64821;13.710;100.604;2023-05-07T20:19:54;15.35;;;10.45;;
76094;SDS011;64821;13.710;100.604;2023-05-07T20:20:58;16.60;;;11.38;;
76094;SDS011;64821;13.710;100.604;2023-05-07T20:22:01;16.77;;;10.70;;
76094;SDS011;64821;13.710;100.604;2023-05-07T20:23:05;16.20;;;10.57;;
76094;SDS011;64821;13.710;100.604;2023-05-07T20:24:09;15.50;;;10.00;;
76094;SDS011;64821;13.710;100.604;2023-05-07T20:25:13;15.85;;;10.35;;
76094;SDS011;64821;13.710;100.604;2023-05-07T20:26:16;17.33;;;10.75;;
76094;SDS011;64821;13.710;100.604;2023-05-07T20:27:20;14.65;;;10.63;;
76094;SDS011;64821;13.710;100.604;2023-05-07T20:28:24;16.45;;;10.88;;
76094;SDS011;64821;13.710;100.604;2023-05-07T20:29:28;16.20;;;10.83;;
76094;SDS011;64821;13.710;100.604;2023-05-07T20:30:32;13.65;;;9.80;;
76094;SDS011;64821;13.710;100.604;2023-05-07T20:31:35;17.63;;;10.90;;
76094;SDS011;64821;13.710;100.604;2023-05-07T20:32:39;14.98;;;10.13;;
76094;SDS011;64821;13.710;100.604;2023-05-07T20:33:45;17.50;;;10.50;;
76094;SDS011;64821;13.710;100.604;2023-05-07T20:34:48;18.87;;;10.93;;
76094;SDS011;64821;13.710;100.604;2023-05-07T20:35:52;17.02;;;10.88;;
76094;SDS011;64821;13.710;100.604;2023-05-07T20:36:56;15.90;;;10.98;;
76094;SDS011;64821;13.710;100.604;2023-05-07T20:37:59;16.48;;;10.48;;
76094;SDS011;64821;13.710;100.604;2023-05-07T20:39:03;17.02;;;10.43;;
76094;SDS011;64821;13.710;100.604;2023-05-07T20:40:07;15.67;;;10.50;;
76094;SDS011;64821;13.710;100.604;2023-05-07T20:41:12;16.67;;;10.52;;
76094;SDS011;64821;13.710;100.604;2023-05-07T20:42:15;17.25;;;10.43;;
76094;SDS011;64821;13.710;100.604;2023-05-07T20:43:19;17.17;;;10.27;;
76094;SDS011;64821;13.710;100.604;2023-05-07T20:44:23;15.27;;;10.40;;
76094;SDS011;64821;13.710;100.604;2023-05-07T20:45:27;15.53;;;10.50;;
76094;SDS011;64821;13.710;100.604;2023-05-07T20:46:31;19.42;;;11.18;;
76094;SDS011;64821;13.710;100.604;2023-05-07T20:47:34;17.63;;;10.30;;
76094;SDS011;64821;13.710;100.604;2023-05-07T20:48:38;15.10;;;9.68;;
76094;SDS011;64821;13.710;100.604;2023-05-07T20:49:43;18.17;;;10.35;;
76094;SDS011;64821;13.710;100.604;2023-05-07T20:50:52;16.87;;;10.17;;
76094;SDS011;64821;13.710;100.604;2023-05-07T20:51:55;15.95;;;11.55;;
76094;SDS011;64821;13.710;100.604;2023-05-07T20:52:59;16.15;;;10.65;;
76094;SDS011;64821;13.710;100.604;2023-05-07T20:54:03;16.52;;;11.18;;
76094;SDS011;64821;13.710;100.604;2023-05-07T20:55:07;17.02;;;11.32;;
76094;SDS011;64821;13.710;100.604;2023-05-07T20:56:11;17.43;;;11.10;;
76094;SDS011;64821;13.710;100.604;2023-05-07T20:57:14;14.90;;;11.30;;
76094;SDS011;64821;13.710;100.604;2023-05-07T20:58:18;16.67;;;11.13;;
76094;SDS011;64821;13.710;100.604;2023-05-07T20:59:22;16.77;;;10.95;;
76094;SDS011;64821;13.710;100.604;2023-05-07T21:00:26;17.38;;;10.90;;
76094;SDS011;64821;13.710;100.604;2023-05-07T21:01:30;17.20;;;10.83;;
76094;SDS011;64821;13.710;100.604;2023-05-07T21:02:34;17.10;;;11.20;;
76094;SDS011;64821;13.710;100.604;2023-05-07T21:03:38;15.90;;;11.35;;
76094;SDS011;64821;13.710;100.604;2023-05-07T21:04:43;14.60;;;10.38;;
76094;SDS011;64821;13.710;100.604;2023-05-07T21:05:50;15.18;;;10.98;;
76094;SDS011;64821;13.710;100.604;2023-05-07T21:06:54;15.60;;;10.40;;
76094;SDS011;64821;13.710;100.604;2023-05-07T21:07:58;18.10;;;10.32;;
76094;SDS011;64821;13.710;100.604;2023-05-07T21:09:02;15.57;;;10.52;;
76094;SDS011;64821;13.710;100.604;2023-05-07T21:10:06;16.35;;;10.48;;
76094;SDS011;64821;13.710;100.604;2023-05-07T21:11:11;16.20;;;10.15;;
76094;SDS011;64821;13.710;100.604;2023-05-07T21:12:14;16.53;;;10.80;;